This is the latest recevied weather packets stored in our database for station/object KG5TTF. If no packets are shown the sender has not sent any weather packets the latest 1 day(s).
| Time | Temp. | Humidity | Pressure | Rain* | Wind** | Luminosity | Snow |
|---|---|---|---|---|---|---|---|
| 1778089305 | 0.56° C | 90% | 1022.9 hPa | 0 mm | - | 172 W/m² | - |
| 1778089004 | 0.56° C | 90% | 1023 hPa | 0 mm | - | 163 W/m² | - |
| 1778088700 | 0.56° C | 91% | 1023.1 hPa | 0 mm | - | 162 W/m² | - |
| 1778088093 | 0.56° C | 91% | 1022.9 hPa | 0 mm | - | 187 W/m² | - |
| 1778087482 | 0.56° C | 93% | 1022.6 hPa | 0 mm | - | 186 W/m² | - |
| 1778086871 | 0.56° C | 94% | 1022.2 hPa | 0 mm | - | 190 W/m² | - |
| 1778084434 | 0° C | 97% | 1022 hPa | 0 mm | - | 150 W/m² | - |
| 1778083828 | 0° C | 98% | 1022 hPa | 0 mm | - | 149 W/m² | - |
| 1778083222 | -0.56° C | 98% | 1021.9 hPa | 0 mm | - | 124 W/m² | - |
| 1778080904 | -1.11° C | 99% | 1021.6 hPa | 0 mm | - | 102 W/m² | - |
| 1778080603 | -1.11° C | 99% | 1021.6 hPa | 0 mm | - | 100 W/m² | - |
| 1778080299 | -1.11° C | 99% | 1021.4 hPa | 0 mm | - | 101 W/m² | - |
| 1778079693 | -1.11° C | 99% | 1021.3 hPa | 0 mm | - | 112 W/m² | - |
| 1778079390 | -1.11° C | 99% | 1021.4 hPa | 0 mm | - | 110 W/m² | - |
| 1778077876 | -1.67° C | 99% | 1021.5 hPa | 0 mm | - | 68 W/m² | - |
| 1778076668 | -1.67° C | 99% | 1021.5 hPa | 0 mm | - | 41 W/m² | - |
| 1778076062 | -1.67° C | 99% | 1021.3 hPa | 0 mm | - | 34 W/m² | - |
| 1778075455 | -2.22° C | 99% | 1021.3 hPa | 0 mm | - | 32 W/m² | - |
| 1778073939 | -2.22° C | 99% | 1021.1 hPa | 0 mm | - | 16 W/m² | - |
| 1778073636 | -2.22° C | 99% | 1020.8 hPa | 0 mm | - | 18 W/m² | - |
| 1778072122 | -2.78° C | 99% | 1020.8 hPa | 0 mm | - | 17 W/m² | - |
| 1778071215 | -2.78° C | 99% | 1020 hPa | 0 mm | - | 6 W/m² | - |
| 1778070307 | -2.78° C | 99% | 1020.2 hPa | 0 mm | - | 5 W/m² | - |
| 1778067585 | -2.78° C | 99% | 1019.4 hPa | 0 mm | - | 0 W/m² | - |
| 1778065162 | -2.78° C | 99% | 1019.3 hPa | 0 mm | - | 0 W/m² | - |
* Rain latest hour (hover to see other rain measurements)
** Current wind speed in m/s (hover to see current wind gust speed)